createdAt,value
2017-10-10T00:00:33.871Z,0
2017-10-10T00:01:33.822Z,0
2017-10-10T00:02:33.481Z,0
2017-10-10T00:03:33.465Z,0
2017-10-10T00:04:33.794Z,0
2017-10-10T00:05:33.452Z,0
2017-10-10T00:06:33.441Z,0
2017-10-10T00:07:33.777Z,0
2017-10-10T00:08:33.093Z,0
2017-10-10T00:09:33.770Z,0
2017-10-10T00:10:33.742Z,0
2017-10-10T00:11:33.740Z,0
2017-10-10T00:12:33.642Z,0
2017-10-10T00:13:33.388Z,0
2017-10-10T00:14:33.374Z,0
2017-10-10T00:15:33.361Z,0
2017-10-10T00:16:33.689Z,0
2017-10-10T00:17:33.680Z,0
2017-10-10T00:18:33.345Z,0
2017-10-10T00:19:34.061Z,0
2017-10-10T00:20:33.319Z,0
2017-10-10T00:21:32.992Z,0
2017-10-10T00:22:32.978Z,0
2017-10-10T00:23:33.295Z,0
2017-10-10T00:24:33.620Z,0
2017-10-10T00:25:33.616Z,0
2017-10-10T00:26:33.273Z,0
2017-10-10T00:27:33.599Z,0
2017-10-10T00:28:33.260Z,0
2017-10-10T00:29:33.586Z,0
2017-10-10T00:30:33.234Z,0
2017-10-10T00:31:33.559Z,0
2017-10-10T00:32:33.223Z,0
2017-10-10T00:33:33.218Z,0
2017-10-10T00:34:33.545Z,0
2017-10-10T00:35:33.540Z,0
2017-10-10T00:36:33.192Z,0
2017-10-10T00:37:33.177Z,0
2017-10-10T00:38:33.170Z,0
2017-10-10T00:39:33.501Z,0
2017-10-10T00:40:33.152Z,0
2017-10-10T00:41:32.820Z,0
2017-10-10T00:42:33.470Z,0
2017-10-10T00:43:33.132Z,0
2017-10-10T00:44:33.131Z,0
2017-10-10T00:45:32.781Z,0
2017-10-10T00:46:33.105Z,0
2017-10-10T00:47:32.768Z,0
2017-10-10T00:48:33.090Z,0
2017-10-10T00:49:33.080Z,0
2017-10-10T00:50:33.406Z,0
2017-10-10T00:51:33.073Z,0
2017-10-10T00:52:33.057Z,0
2017-10-10T00:53:33.376Z,0
2017-10-10T00:54:33.042Z,0
2017-10-10T00:55:32.695Z,0
2017-10-10T00:56:33.363Z,0
2017-10-10T00:57:33.344Z,0
2017-10-10T00:58:33.341Z,0
2017-10-10T00:59:33.328Z,0
2017-10-10T01:00:32.651Z,0
2017-10-10T01:01:33.312Z,0
2017-10-10T01:02:32.647Z,0
2017-10-10T01:03:32.968Z,0
2017-10-10T01:04:32.626Z,0
2017-10-10T01:05:32.613Z,0
2017-10-10T01:06:32.609Z,0
2017-10-10T01:07:32.941Z,0
2017-10-10T01:08:32.253Z,0
2017-10-10T01:09:32.918Z,0
2017-10-10T01:10:32.905Z,0
2017-10-10T01:11:32.570Z,0
2017-10-10T01:12:32.888Z,0
2017-10-10T01:13:32.890Z,0
2017-10-10T01:14:32.868Z,0
2017-10-10T01:15:32.863Z,0
2017-10-10T01:16:32.526Z,0
2017-10-10T01:17:32.516Z,0
2017-10-10T01:18:32.834Z,0
2017-10-10T01:19:33.159Z,0
2017-10-10T01:20:32.824Z,0
2017-10-10T01:21:33.144Z,0
2017-10-10T01:22:33.140Z,0
2017-10-10T01:23:32.464Z,0
2017-10-10T01:24:33.124Z,0
2017-10-10T01:25:33.117Z,0
2017-10-10T01:26:32.771Z,0
2017-10-10T01:27:33.098Z,0
2017-10-10T01:28:33.085Z,0
2017-10-10T01:29:33.084Z,0
2017-10-10T01:30:32.403Z,0
2017-10-10T01:31:33.061Z,0
2017-10-10T01:32:33.055Z,0
2017-10-10T01:33:33.043Z,0
2017-10-10T01:34:33.037Z,0
2017-10-10T01:35:33.043Z,0
2017-10-10T01:36:32.690Z,0
2017-10-10T01:37:32.681Z,0
2017-10-10T01:38:32.999Z,0
2017-10-10T01:39:32.668Z,0
2017-10-10T01:40:32.664Z,0
2017-10-10T01:41:32.975Z,0
2017-10-10T01:42:32.967Z,0
2017-10-10T01:43:32.968Z,0
2017-10-10T01:44:32.974Z,0
2017-10-10T01:45:32.620Z,0
2017-10-10T01:46:32.268Z,0
2017-10-10T01:47:32.929Z,0
2017-10-10T01:48:32.920Z,0
2017-10-10T01:49:32.577Z,0
2017-10-10T01:50:32.903Z,0
2017-10-10T01:51:32.566Z,0
2017-10-10T01:52:32.887Z,0
2017-10-10T01:53:32.220Z,0
2017-10-10T01:54:32.541Z,0
2017-10-10T01:55:32.867Z,0
2017-10-10T01:56:32.517Z,0
2017-10-10T01:57:32.855Z,0
2017-10-10T01:58:32.852Z,0
2017-10-10T01:59:32.497Z,0
2017-10-10T02:00:32.821Z,0
2017-10-10T02:01:32.813Z,0
2017-10-10T02:02:32.476Z,0
2017-10-10T02:03:32.468Z,0
2017-10-10T02:04:32.487Z,0
2017-10-10T02:05:32.455Z,0
2017-10-10T02:06:31.777Z,0
2017-10-10T02:07:32.437Z,0
2017-10-10T02:08:32.424Z,0
2017-10-10T02:09:32.421Z,0
2017-10-10T02:10:32.082Z,0
2017-10-10T02:11:32.402Z,0
2017-10-10T02:12:32.399Z,0
2017-10-10T02:13:32.389Z,0
2017-10-10T02:14:32.375Z,0
2017-10-10T02:15:32.374Z,0
2017-10-10T02:16:32.357Z,0
2017-10-10T02:17:32.684Z,0
2017-10-10T02:18:32.340Z,0
2017-10-10T02:19:32.334Z,0
2017-10-10T02:20:32.336Z,0
2017-10-10T02:21:32.659Z,0
2017-10-10T02:22:31.649Z,0
2017-10-10T02:23:32.309Z,0
2017-10-10T02:24:31.633Z,0
2017-10-10T02:25:32.296Z,0
2017-10-10T02:26:31.954Z,0
2017-10-10T02:27:32.269Z,0
2017-10-10T02:28:32.267Z,0
2017-10-10T02:29:31.933Z,0
2017-10-10T02:30:32.277Z,0
2017-10-10T02:31:32.256Z,0
2017-10-10T02:32:32.584Z,0
2017-10-10T02:33:31.560Z,0
2017-10-10T02:34:31.879Z,0
2017-10-10T02:35:32.550Z,0
2017-10-10T02:36:31.869Z,0
2017-10-10T02:37:32.533Z,0
2017-10-10T02:38:32.533Z,0
2017-10-10T02:39:31.858Z,0
2017-10-10T02:40:32.507Z,0
2017-10-10T02:41:32.163Z,0
2017-10-10T02:42:31.818Z,0
2017-10-10T02:43:32.481Z,0
2017-10-10T02:44:32.138Z,0
2017-10-10T02:45:32.472Z,0
2017-10-10T02:46:32.461Z,0
2017-10-10T02:47:32.501Z,0
2017-10-10T02:48:31.773Z,0
2017-10-10T02:49:32.106Z,0
2017-10-10T02:50:32.098Z,0
2017-10-10T02:51:32.428Z,0
2017-10-10T02:52:32.073Z,0
2017-10-10T02:53:32.404Z,0
2017-10-10T02:54:32.060Z,0
2017-10-10T02:55:32.385Z,0
2017-10-10T02:56:32.381Z,0
2017-10-10T02:57:32.375Z,0
2017-10-10T02:58:32.024Z,0
2017-10-10T02:59:32.348Z,0
2017-10-10T03:00:32.017Z,0
2017-10-10T03:01:32.344Z,0
2017-10-10T03:02:31.996Z,0
2017-10-10T03:03:31.989Z,0
2017-10-10T03:04:31.986Z,0
2017-10-10T03:05:31.642Z,0
2017-10-10T03:06:32.296Z,0
2017-10-10T03:07:31.953Z,0
2017-10-10T03:08:31.624Z,0
2017-10-10T03:09:32.273Z,0
2017-10-10T03:10:31.934Z,0
2017-10-10T03:11:31.597Z,0
2017-10-10T03:12:32.264Z,0
2017-10-10T03:13:32.241Z,0
2017-10-10T03:14:31.898Z,0
2017-10-10T03:15:31.899Z,0
2017-10-10T03:16:31.891Z,0
2017-10-10T03:17:31.885Z,0
2017-10-10T03:18:32.210Z,0
2017-10-10T03:19:31.876Z,0
2017-10-10T03:20:31.856Z,0
2017-10-10T03:21:32.177Z,0
2017-10-10T03:22:32.180Z,0
2017-10-10T03:23:32.164Z,0
2017-10-10T03:24:32.160Z,0
2017-10-10T03:25:32.160Z,0
2017-10-10T03:26:31.810Z,0
2017-10-10T03:27:32.136Z,0
2017-10-10T03:28:32.138Z,0
2017-10-10T03:29:31.787Z,0
2017-10-10T03:30:32.123Z,0
2017-10-10T03:31:32.104Z,0
2017-10-10T03:32:32.091Z,0
2017-10-10T03:33:32.095Z,0
2017-10-10T03:34:32.079Z,0
2017-10-10T03:35:31.410Z,0
2017-10-10T03:36:32.065Z,0
2017-10-10T03:37:31.719Z,0
2017-10-10T03:38:32.064Z,0
2017-10-10T03:39:32.038Z,0
2017-10-10T03:40:31.699Z,0
2017-10-10T03:41:32.022Z,0
2017-10-10T03:42:32.012Z,0
2017-10-10T03:43:32.011Z,0
2017-10-10T03:44:32.042Z,0
2017-10-10T03:45:31.988Z,0
2017-10-10T03:46:31.991Z,0
2017-10-10T03:47:31.975Z,0
2017-10-10T03:48:31.969Z,0
2017-10-10T03:49:31.957Z,0
2017-10-10T03:50:31.960Z,0
2017-10-10T03:51:31.946Z,0
2017-10-10T03:52:31.945Z,0
2017-10-10T03:53:31.923Z,0
2017-10-10T03:54:31.590Z,0
2017-10-10T03:55:31.576Z,0
2017-10-10T03:56:31.900Z,0
2017-10-10T03:57:31.567Z,0
2017-10-10T03:58:31.564Z,0
2017-10-10T03:59:31.878Z,0
2017-10-10T04:00:31.532Z,0
2017-10-10T04:01:31.868Z,0
2017-10-10T04:02:31.518Z,0
2017-10-10T04:03:31.880Z,0
2017-10-10T04:04:31.174Z,0
2017-10-10T04:05:31.834Z,0
2017-10-10T04:06:31.157Z,0
2017-10-10T04:07:31.812Z,0
2017-10-10T04:08:31.805Z,0
2017-10-10T04:09:30.798Z,0
2017-10-10T04:10:31.460Z,0
2017-10-10T04:11:31.788Z,0
2017-10-10T04:12:31.444Z,0
2017-10-10T04:13:31.302Z,0
2017-10-10T04:14:31.427Z,0
2017-10-10T04:15:31.425Z,0
2017-10-10T04:16:31.756Z,0
2017-10-10T04:17:31.734Z,0
2017-10-10T04:18:30.735Z,0
2017-10-10T04:19:31.390Z,0
2017-10-10T04:20:31.718Z,0
2017-10-10T04:21:31.371Z,0
2017-10-10T04:22:31.696Z,0
2017-10-10T04:23:31.399Z,0
2017-10-10T04:24:31.343Z,0
2017-10-10T04:25:31.340Z,0
2017-10-10T04:26:31.338Z,0
2017-10-10T04:27:31.337Z,0
2017-10-10T04:28:31.649Z,0
2017-10-10T04:29:30.980Z,0
2017-10-10T04:30:31.640Z,0
2017-10-10T04:31:31.637Z,0
2017-10-10T04:32:31.641Z,0
2017-10-10T04:33:31.602Z,0
2017-10-10T04:34:31.605Z,0
2017-10-10T04:35:31.595Z,0
2017-10-10T04:36:31.245Z,0
2017-10-10T04:37:31.577Z,0
2017-10-10T04:38:31.237Z,0
2017-10-10T04:39:31.563Z,0
2017-10-10T04:40:31.551Z,0
2017-10-10T04:41:31.207Z,0
2017-10-10T04:42:31.223Z,0
2017-10-10T04:43:31.531Z,0
2017-10-10T04:44:31.182Z,0
2017-10-10T04:45:31.566Z,0
2017-10-10T04:46:31.509Z,0
2017-10-10T04:47:31.491Z,0
2017-10-10T04:48:31.483Z,0
2017-10-10T04:49:31.480Z,0
2017-10-10T04:50:31.151Z,0
2017-10-10T04:51:31.471Z,0
2017-10-10T04:52:30.804Z,0
2017-10-10T04:53:31.442Z,0
2017-10-10T04:54:31.101Z,0
2017-10-10T04:55:31.096Z,0
2017-10-10T04:56:30.757Z,0
2017-10-10T04:57:31.411Z,0
2017-10-10T04:58:31.087Z,0
2017-10-10T04:59:31.067Z,0
2017-10-10T05:00:31.077Z,0
2017-10-10T05:01:31.050Z,0
2017-10-10T05:02:31.051Z,0
2017-10-10T05:03:31.365Z,0
2017-10-10T05:04:31.031Z,0
2017-10-10T05:05:31.031Z,0
2017-10-10T05:06:31.021Z,0
2017-10-10T05:07:30.678Z,0
2017-10-10T05:08:30.996Z,0
2017-10-10T05:09:30.987Z,0
2017-10-10T05:10:30.985Z,0
2017-10-10T05:11:30.977Z,0
2017-10-10T05:12:30.971Z,0
2017-10-10T05:13:31.297Z,0
2017-10-10T05:14:30.951Z,0
2017-10-10T05:15:31.276Z,0
2017-10-10T05:16:30.939Z,0
2017-10-10T05:17:31.278Z,0
2017-10-10T05:18:30.928Z,0
2017-10-10T05:19:30.594Z,0
2017-10-10T05:20:30.905Z,0
2017-10-10T05:21:31.240Z,5
2017-10-10T05:22:30.887Z,5
2017-10-10T05:23:30.548Z,5
2017-10-10T05:24:30.875Z,5
2017-10-10T05:25:30.863Z,5
2017-10-10T05:26:31.256Z,5
2017-10-10T05:27:31.189Z,5
2017-10-10T05:28:31.168Z,5
2017-10-10T05:29:30.838Z,5
2017-10-10T05:30:31.165Z,5
2017-10-10T05:31:31.158Z,5
2017-10-10T05:32:31.149Z,10
2017-10-10T05:33:31.139Z,10
2017-10-10T05:34:30.467Z,10
2017-10-10T05:35:31.125Z,10
2017-10-10T05:36:30.783Z,10
2017-10-10T05:37:31.102Z,10
2017-10-10T05:38:31.096Z,15
2017-10-10T05:39:31.090Z,15
2017-10-10T05:40:30.746Z,15
2017-10-10T05:41:30.417Z,20
2017-10-10T05:42:31.069Z,20
2017-10-10T05:43:30.396Z,20
2017-10-10T05:44:31.051Z,15
2017-10-10T05:45:31.045Z,15
2017-10-10T05:46:30.704Z,15
2017-10-10T05:47:30.378Z,15
2017-10-10T05:48:30.712Z,15
2017-10-10T05:49:30.692Z,15
2017-10-10T05:50:30.349Z,15
2017-10-10T05:51:30.995Z,15
2017-10-10T05:52:30.655Z,15
2017-10-10T05:53:30.653Z,15
2017-10-10T05:54:30.652Z,15
2017-10-10T05:55:30.637Z,15
2017-10-10T05:56:30.637Z,15
2017-10-10T05:57:30.623Z,15
2017-10-10T05:58:30.619Z,15
2017-10-10T05:59:30.943Z,20
2017-10-10T06:00:30.931Z,20
2017-10-10T06:01:30.593Z,20
2017-10-10T06:02:30.587Z,25
2017-10-10T06:03:30.904Z,25
2017-10-10T06:04:30.900Z,30
2017-10-10T06:05:30.894Z,25
2017-10-10T06:06:30.562Z,25
2017-10-10T06:07:30.556Z,30
2017-10-10T06:08:30.553Z,30
2017-10-10T06:09:30.866Z,30
2017-10-10T06:10:30.860Z,30
2017-10-10T06:11:30.185Z,30
2017-10-10T06:12:30.511Z,30
2017-10-10T06:13:30.855Z,30
2017-10-10T06:14:30.501Z,25
2017-10-10T06:15:30.486Z,25
2017-10-10T06:16:30.823Z,30
2017-10-10T06:17:30.803Z,25
2017-10-10T06:18:30.467Z,25
2017-10-10T06:19:30.462Z,25
2017-10-10T06:20:30.789Z,25
2017-10-10T06:21:30.782Z,30
2017-10-10T06:22:29.773Z,30
2017-10-10T06:23:30.427Z,30
2017-10-10T06:24:30.747Z,35
2017-10-10T06:25:30.414Z,35
2017-10-10T06:26:30.737Z,35
2017-10-10T06:27:30.395Z,35
2017-10-10T06:28:30.391Z,40
2017-10-10T06:29:30.715Z,35
2017-10-10T06:30:30.710Z,40
2017-10-10T06:31:31.003Z,40
2017-10-10T06:32:30.362Z,45
2017-10-10T06:33:30.354Z,50
2017-10-10T06:34:30.346Z,50
2017-10-10T06:35:30.670Z,50
2017-10-10T06:36:30.662Z,50
2017-10-10T06:37:30.657Z,50
2017-10-10T06:38:30.651Z,55
2017-10-10T06:39:29.644Z,55
2017-10-10T06:40:30.302Z,55
2017-10-10T06:41:30.292Z,60
2017-10-10T06:42:30.287Z,60
2017-10-10T06:43:30.279Z,60
2017-10-10T06:44:30.983Z,65
2017-10-10T06:45:29.937Z,65
2017-10-10T06:46:30.836Z,65
2017-10-10T06:47:29.924Z,65
2017-10-10T06:48:30.577Z,65
2017-10-10T06:49:30.571Z,65
2017-10-10T06:50:30.253Z,70
2017-10-10T06:51:30.219Z,70
2017-10-10T06:52:29.885Z,65
2017-10-10T06:53:30.210Z,60
2017-10-10T06:54:29.868Z,55
2017-10-10T06:55:30.528Z,55
2017-10-10T06:56:30.203Z,55
2017-10-10T06:57:30.531Z,50
2017-10-10T06:58:30.502Z,50
2017-10-10T06:59:30.164Z,50
2017-10-10T07:00:30.489Z,55
2017-10-10T07:01:30.146Z,60
2017-10-10T07:02:30.478Z,60
2017-10-10T07:03:30.135Z,60
2017-10-10T07:04:30.124Z,65
2017-10-10T07:05:30.126Z,65
2017-10-10T07:06:30.111Z,70
2017-10-10T07:07:30.443Z,75
2017-10-10T07:08:30.096Z,85
2017-10-10T07:09:30.419Z,95
2017-10-10T07:10:30.082Z,95
2017-10-10T07:11:30.407Z,95
2017-10-10T07:12:30.404Z,100
2017-10-10T07:13:30.060Z,95
2017-10-10T07:14:29.722Z,90
2017-10-10T07:15:30.047Z,85
2017-10-10T07:16:30.038Z,90
2017-10-10T07:17:30.371Z,90
2017-10-10T07:18:30.028Z,90
2017-10-10T07:19:30.363Z,90
2017-10-10T07:20:30.347Z,90
2017-10-10T07:21:30.356Z,90
2017-10-10T07:22:29.997Z,95
2017-10-10T07:23:29.988Z,90
2017-10-10T07:24:29.988Z,95
2017-10-10T07:25:29.988Z,95
2017-10-10T07:26:30.301Z,95
2017-10-10T07:27:30.293Z,100
2017-10-10T07:28:30.295Z,100
2017-10-10T07:29:29.945Z,100
2017-10-10T07:30:30.271Z,105
2017-10-10T07:31:30.268Z,110
2017-10-10T07:32:30.271Z,110
2017-10-10T07:33:29.923Z,110
2017-10-10T07:34:29.915Z,115
2017-10-10T07:35:30.240Z,120
2017-10-10T07:36:30.236Z,135
2017-10-10T07:37:29.558Z,140
2017-10-10T07:38:30.216Z,140
2017-10-10T07:39:30.215Z,135
2017-10-10T07:40:30.226Z,130
2017-10-10T07:41:29.532Z,120
2017-10-10T07:42:29.189Z,120
2017-10-10T07:43:29.848Z,125
2017-10-10T07:44:30.182Z,130
2017-10-10T07:45:29.852Z,130
2017-10-10T07:46:29.839Z,130
2017-10-10T07:47:29.826Z,130
2017-10-10T07:48:29.694Z,135
2017-10-10T07:49:29.815Z,150
2017-10-10T07:50:29.806Z,155
2017-10-10T07:51:30.131Z,155
2017-10-10T07:52:29.791Z,150
2017-10-10T07:53:29.790Z,150
2017-10-10T07:54:29.813Z,160
2017-10-10T07:55:30.101Z,165
2017-10-10T07:56:29.769Z,175
2017-10-10T07:57:29.750Z,180
2017-10-10T07:58:29.090Z,180
2017-10-10T07:59:30.081Z,160
2017-10-10T08:00:29.406Z,140
2017-10-10T08:01:29.742Z,125
2017-10-10T08:02:29.726Z,120
2017-10-10T08:03:29.055Z,130
2017-10-10T08:04:30.051Z,135
2017-10-10T08:05:29.707Z,145
2017-10-10T08:06:30.029Z,145
2017-10-10T08:07:29.358Z,150
2017-10-10T08:08:29.683Z,145
2017-10-10T08:09:29.353Z,135
2017-10-10T08:10:29.677Z,120
2017-10-10T08:11:30.008Z,110
2017-10-10T08:12:29.322Z,100
2017-10-10T08:13:29.984Z,100
2017-10-10T08:14:29.974Z,100
2017-10-10T08:15:29.640Z,115
2017-10-10T08:16:29.300Z,135
2017-10-10T08:17:29.639Z,135
2017-10-10T08:18:29.619Z,130
2017-10-10T08:19:29.612Z,140
2017-10-10T08:20:29.947Z,150
2017-10-10T08:21:29.602Z,155
2017-10-10T08:22:29.268Z,150
2017-10-10T08:23:29.922Z,170
2017-10-10T08:24:29.929Z,170
2017-10-10T08:25:29.905Z,150
2017-10-10T08:26:29.566Z,125
2017-10-10T08:27:29.568Z,135
2017-10-10T08:28:29.557Z,135
2017-10-10T08:29:29.218Z,165
2017-10-10T08:30:28.875Z,170
2017-10-10T08:31:29.865Z,175
2017-10-10T08:32:29.541Z,190
2017-10-10T08:33:29.864Z,200
2017-10-10T08:34:29.185Z,210
2017-10-10T08:35:29.850Z,185
2017-10-10T08:36:29.178Z,210
2017-10-10T08:37:29.503Z,205
2017-10-10T08:38:29.486Z,180
2017-10-10T08:39:29.820Z,190
2017-10-10T08:40:29.497Z,185
2017-10-10T08:41:29.474Z,210
2017-10-10T08:42:29.130Z,240
2017-10-10T08:43:29.123Z,265
2017-10-10T08:44:29.802Z,275
2017-10-10T08:45:29.780Z,255
2017-10-10T08:46:28.776Z,220
2017-10-10T08:47:28.780Z,195
2017-10-10T08:48:29.430Z,205
2017-10-10T08:49:29.421Z,280
2017-10-10T08:50:29.086Z,330
2017-10-10T08:51:29.085Z,305
2017-10-10T08:52:29.079Z,285
2017-10-10T08:53:29.727Z,255
2017-10-10T08:54:29.060Z,240
2017-10-10T08:55:29.384Z,230
2017-10-10T08:56:29.629Z,220
2017-10-10T08:57:29.373Z,270
2017-10-10T08:58:29.405Z,260
2017-10-10T08:59:29.046Z,285
2017-10-10T09:00:29.695Z,270
2017-10-10T09:01:28.685Z,265
2017-10-10T09:02:29.674Z,255
2017-10-10T09:03:29.336Z,270
2017-10-10T09:04:29.668Z,310
2017-10-10T09:05:29.322Z,265
2017-10-10T09:06:29.325Z,290
2017-10-10T09:07:28.979Z,315
2017-10-10T09:08:29.306Z,325
2017-10-10T09:09:29.310Z,265
2017-10-10T09:10:28.964Z,260
2017-10-10T09:11:30.004Z,250
2017-10-10T09:12:28.960Z,260
2017-10-10T09:13:28.615Z,225
2017-10-10T09:14:28.956Z,260
2017-10-10T09:15:28.958Z,285
2017-10-10T09:16:29.593Z,310
2017-10-10T09:17:29.260Z,300
2017-10-10T09:18:29.258Z,355
2017-10-10T09:19:29.249Z,365
2017-10-10T09:20:28.607Z,385
2017-10-10T09:21:29.570Z,390
2017-10-10T09:22:28.903Z,370
2017-10-10T09:23:29.230Z,310
2017-10-10T09:24:29.231Z,285
2017-10-10T09:25:29.562Z,240
2017-10-10T09:26:28.886Z,275
2017-10-10T09:27:28.880Z,325
2017-10-10T09:28:28.544Z,305
2017-10-10T09:29:28.868Z,295
2017-10-10T09:30:29.536Z,300
2017-10-10T09:31:28.861Z,380
2017-10-10T09:32:29.197Z,420
2017-10-10T09:33:29.187Z,440
2017-10-10T09:34:28.853Z,475
2017-10-10T09:35:28.845Z,425
2017-10-10T09:36:29.165Z,385
2017-10-10T09:37:28.834Z,460
2017-10-10T09:38:29.385Z,535
2017-10-10T09:39:29.169Z,580
2017-10-10T09:40:28.850Z,560
2017-10-10T09:41:28.830Z,485
2017-10-10T09:42:28.478Z,485
2017-10-10T09:43:29.150Z,385
2017-10-10T09:44:28.808Z,360
2017-10-10T09:45:28.810Z,385
2017-10-10T09:46:28.798Z,390
2017-10-10T09:47:28.458Z,385
2017-10-10T09:48:29.124Z,330
2017-10-10T09:49:28.117Z,360
2017-10-10T09:50:28.779Z,340
2017-10-10T09:51:29.113Z,290
2017-10-10T09:52:29.110Z,290
2017-10-10T09:53:29.442Z,260
2017-10-10T09:54:28.761Z,280
2017-10-10T09:55:28.762Z,300
2017-10-10T09:56:29.110Z,365
2017-10-10T09:57:29.094Z,375
2017-10-10T09:58:29.431Z,340
2017-10-10T09:59:29.086Z,295
2017-10-10T10:00:29.091Z,250
2017-10-10T10:01:28.739Z,225
2017-10-10T10:02:29.085Z,205
2017-10-10T10:03:28.736Z,220
2017-10-10T10:04:29.056Z,190
2017-10-10T10:05:29.061Z,155
2017-10-10T10:06:28.722Z,175
2017-10-10T10:07:29.046Z,180
2017-10-10T10:08:29.053Z,155
2017-10-10T10:09:29.052Z,160
2017-10-10T10:10:29.042Z,170
2017-10-10T10:11:29.035Z,155
2017-10-10T10:12:28.702Z,150
2017-10-10T10:13:28.698Z,160
2017-10-10T10:14:29.022Z,165
2017-10-10T10:15:28.689Z,160
2017-10-10T10:16:28.350Z,160
2017-10-10T10:17:29.018Z,165
2017-10-10T10:18:29.007Z,170
2017-10-10T10:19:29.012Z,160
2017-10-10T10:20:29.365Z,170
2017-10-10T10:21:28.659Z,160
2017-10-10T10:22:29.324Z,140
2017-10-10T10:23:29.326Z,155
2017-10-10T10:24:28.652Z,130
2017-10-10T10:25:28.315Z,130
2017-10-10T10:26:29.306Z,120
2017-10-10T10:27:29.306Z,110
2017-10-10T10:28:28.973Z,95
2017-10-10T10:29:28.955Z,90
2017-10-10T10:30:28.960Z,115
2017-10-10T10:31:29.289Z,125
2017-10-10T10:32:28.949Z,160
2017-10-10T10:33:29.286Z,160
2017-10-10T10:34:28.936Z,155
2017-10-10T10:35:29.272Z,175
2017-10-10T10:36:29.268Z,180
2017-10-10T10:37:29.259Z,200
2017-10-10T10:38:28.924Z,195
2017-10-10T10:39:28.912Z,195
2017-10-10T10:40:28.578Z,190
2017-10-10T10:41:29.246Z,210
2017-10-10T10:42:27.903Z,190
2017-10-10T10:43:28.580Z,200
2017-10-10T10:44:29.224Z,210
2017-10-10T10:45:28.561Z,200
2017-10-10T10:46:28.893Z,195
2017-10-10T10:47:28.888Z,180
2017-10-10T10:48:28.533Z,175
2017-10-10T10:49:28.200Z,160
2017-10-10T10:50:28.529Z,180
2017-10-10T10:51:28.520Z,230
2017-10-10T10:52:28.522Z,240
2017-10-10T10:53:28.510Z,305
2017-10-10T10:54:29.214Z,435
2017-10-10T10:55:29.166Z,355
2017-10-10T10:56:28.502Z,275
2017-10-10T10:57:29.161Z,230
2017-10-10T10:58:28.825Z,195
2017-10-10T10:59:29.064Z,200
2017-10-10T11:00:28.820Z,175
2017-10-10T11:01:28.813Z,185
2017-10-10T11:02:28.808Z,170
2017-10-10T11:03:28.468Z,225
2017-10-10T11:04:28.793Z,275
2017-10-10T11:05:28.792Z,220
2017-10-10T11:06:28.452Z,260
2017-10-10T11:07:28.782Z,305
2017-10-10T11:08:28.446Z,300
2017-10-10T11:09:28.770Z,315
2017-10-10T11:10:29.107Z,280
2017-10-10T11:11:28.434Z,320
2017-10-10T11:12:28.777Z,270
2017-10-10T11:13:29.099Z,260
2017-10-10T11:14:28.088Z,235
2017-10-10T11:15:28.789Z,205
2017-10-10T11:16:29.078Z,190
2017-10-10T11:17:28.407Z,200
2017-10-10T11:18:29.084Z,220
2017-10-10T11:19:28.400Z,235
2017-10-10T11:20:29.051Z,260
2017-10-10T11:21:29.054Z,220
2017-10-10T11:22:29.057Z,165
2017-10-10T11:23:28.716Z,165
2017-10-10T11:24:28.715Z,210
2017-10-10T11:25:28.371Z,210
2017-10-10T11:26:29.035Z,230
2017-10-10T11:27:29.041Z,225
2017-10-10T11:28:29.034Z,195
2017-10-10T11:29:28.354Z,165
2017-10-10T11:30:28.689Z,150
2017-10-10T11:31:29.028Z,130
2017-10-10T11:32:29.013Z,130
2017-10-10T11:33:29.003Z,130
2017-10-10T11:34:28.677Z,135
2017-10-10T11:35:28.671Z,140
2017-10-10T11:36:28.663Z,115
2017-10-10T11:37:28.986Z,165
2017-10-10T11:38:28.659Z,165
2017-10-10T11:39:28.661Z,115
2017-10-10T11:40:28.691Z,100
2017-10-10T11:41:28.969Z,105
2017-10-10T11:42:28.306Z,150
2017-10-10T11:43:28.960Z,170
2017-10-10T11:44:28.634Z,215
2017-10-10T11:45:28.638Z,225
2017-10-10T11:46:27.950Z,245
2017-10-10T11:47:28.612Z,255
2017-10-10T11:48:28.612Z,245
2017-10-10T11:49:28.618Z,285
2017-10-10T11:50:28.604Z,265
2017-10-10T11:51:28.843Z,305
2017-10-10T11:52:28.264Z,225
2017-10-10T11:53:28.593Z,270
2017-10-10T11:54:28.584Z,240
2017-10-10T11:55:28.245Z,215
2017-10-10T11:56:28.583Z,245
2017-10-10T11:57:28.584Z,190
2017-10-10T11:58:28.233Z,205
2017-10-10T11:59:28.563Z,155
2017-10-10T12:00:28.885Z,215
2017-10-10T12:01:28.554Z,195
2017-10-10T12:02:28.878Z,170
2017-10-10T12:03:28.208Z,165
2017-10-10T12:04:28.208Z,155
2017-10-10T12:05:28.540Z,170
2017-10-10T12:06:28.876Z,160
2017-10-10T12:07:28.531Z,140
2017-10-10T12:08:28.566Z,135
2017-10-10T12:09:28.180Z,130
2017-10-10T12:10:28.844Z,120
2017-10-10T12:11:28.182Z,105
2017-10-10T12:12:28.502Z,115
2017-10-10T12:13:28.169Z,120
2017-10-10T12:14:28.497Z,130
2017-10-10T12:15:28.488Z,140
2017-10-10T12:16:28.156Z,160
2017-10-10T12:17:28.151Z,135
2017-10-10T12:18:28.818Z,135
2017-10-10T12:19:28.807Z,135
2017-10-10T12:20:28.137Z,135
2017-10-10T12:21:28.463Z,135
2017-10-10T12:22:28.815Z,120
2017-10-10T12:23:28.711Z,140
2017-10-10T12:24:28.456Z,145
2017-10-10T12:25:28.451Z,150
2017-10-10T12:26:28.774Z,195
2017-10-10T12:27:28.437Z,175
2017-10-10T12:28:28.774Z,215
2017-10-10T12:29:28.626Z,175
2017-10-10T12:30:28.781Z,185
2017-10-10T12:31:28.754Z,200
2017-10-10T12:32:28.411Z,210
2017-10-10T12:33:28.412Z,200
2017-10-10T12:34:28.729Z,210
2017-10-10T12:35:28.397Z,220
2017-10-10T12:36:28.397Z,205
2017-10-10T12:37:28.727Z,160
2017-10-10T12:38:28.393Z,165
2017-10-10T12:39:28.396Z,195
2017-10-10T12:40:28.718Z,185
2017-10-10T12:41:28.382Z,200
2017-10-10T12:42:28.378Z,280
2017-10-10T12:43:28.715Z,320
2017-10-10T12:44:28.378Z,340
2017-10-10T12:45:28.686Z,350
2017-10-10T12:46:28.026Z,315
2017-10-10T12:47:28.554Z,300
2017-10-10T12:48:28.012Z,265
2017-10-10T12:49:28.007Z,255
2017-10-10T12:50:28.330Z,230
2017-10-10T12:51:27.997Z,195
2017-10-10T12:52:28.002Z,210
2017-10-10T12:53:27.996Z,215
2017-10-10T12:54:28.907Z,205
2017-10-10T12:55:27.976Z,190
2017-10-10T12:56:28.312Z,200
2017-10-10T12:57:27.969Z,170
2017-10-10T12:58:28.640Z,170
2017-10-10T12:59:28.632Z,180
2017-10-10T13:00:28.287Z,185
2017-10-10T13:01:28.285Z,215
2017-10-10T13:02:28.657Z,165
2017-10-10T13:03:28.287Z,185
2017-10-10T13:04:28.476Z,180
2017-10-10T13:05:28.267Z,140
2017-10-10T13:06:28.596Z,145
2017-10-10T13:07:28.594Z,165
2017-10-10T13:08:28.455Z,135
2017-10-10T13:09:28.261Z,130
2017-10-10T13:10:27.924Z,120
2017-10-10T13:11:28.574Z,120
2017-10-10T13:12:27.913Z,115
2017-10-10T13:13:28.234Z,100
2017-10-10T13:14:27.913Z,115
2017-10-10T13:15:28.243Z,105
2017-10-10T13:16:28.223Z,110
2017-10-10T13:17:27.889Z,90
2017-10-10T13:18:28.224Z,85
2017-10-10T13:19:27.873Z,105
2017-10-10T13:20:28.582Z,100
2017-10-10T13:21:27.873Z,95
2017-10-10T13:22:27.753Z,95
2017-10-10T13:23:27.852Z,90
2017-10-10T13:24:27.881Z,95
2017-10-10T13:25:28.816Z,115
2017-10-10T13:26:28.205Z,95
2017-10-10T13:27:28.174Z,85
2017-10-10T13:28:27.834Z,80
2017-10-10T13:29:28.164Z,70
2017-10-10T13:30:28.149Z,70
2017-10-10T13:31:28.154Z,95
2017-10-10T13:32:28.151Z,115
2017-10-10T13:33:27.810Z,105
2017-10-10T13:34:28.497Z,100
2017-10-10T13:35:27.799Z,105
2017-10-10T13:36:27.797Z,105
2017-10-10T13:37:27.795Z,140
2017-10-10T13:38:28.122Z,135
2017-10-10T13:39:27.781Z,130
2017-10-10T13:40:28.112Z,105
2017-10-10T13:41:28.104Z,120
2017-10-10T13:42:28.101Z,120
2017-10-10T13:43:27.765Z,100
2017-10-10T13:44:28.091Z,90
2017-10-10T13:45:27.749Z,105
2017-10-10T13:46:28.094Z,115
2017-10-10T13:47:28.410Z,100
2017-10-10T13:48:28.776Z,105
2017-10-10T13:49:27.735Z,125
2017-10-10T13:50:28.394Z,130
2017-10-10T13:51:28.054Z,125
2017-10-10T13:52:27.725Z,125
2017-10-10T13:53:28.046Z,105
2017-10-10T13:54:28.375Z,95
2017-10-10T13:55:28.371Z,80
2017-10-10T13:56:28.364Z,80
2017-10-10T13:57:28.360Z,75
2017-10-10T13:58:28.353Z,75
2017-10-10T13:59:28.378Z,70
2017-10-10T14:00:28.343Z,70
2017-10-10T14:01:28.354Z,70
2017-10-10T14:02:28.338Z,65
2017-10-10T14:03:28.336Z,65
2017-10-10T14:04:28.345Z,55
2017-10-10T14:05:28.322Z,60
2017-10-10T14:06:28.324Z,60
2017-10-10T14:07:28.314Z,50
2017-10-10T14:08:28.307Z,50
2017-10-10T14:09:27.645Z,45
2017-10-10T14:10:27.976Z,35
2017-10-10T14:11:27.958Z,35
2017-10-10T14:12:27.966Z,35
2017-10-10T14:13:28.277Z,50
2017-10-10T14:14:28.275Z,45